sensor_id;sensor_type;location;lat;lon;timestamp;temperature;humidity
25951;DHT22;13748;52.240;6.002;2023-04-30T00:01:41;8.20;99.90
25951;DHT22;13748;52.240;6.002;2023-04-30T00:04:08;8.20;99.90
25951;DHT22;13748;52.240;6.002;2023-04-30T00:06:35;8.20;99.90
25951;DHT22;13748;52.240;6.002;2023-04-30T00:09:02;8.10;99.90
25951;DHT22;13748;52.240;6.002;2023-04-30T00:11:28;8.10;99.90
25951;DHT22;13748;52.240;6.002;2023-04-30T00:13:55;8.00;99.90
25951;DHT22;13748;52.240;6.002;2023-04-30T00:16:22;8.00;99.90
25951;DHT22;13748;52.240;6.002;2023-04-30T00:18:49;7.90;99.90
25951;DHT22;13748;52.240;6.002;2023-04-30T00:21:16;7.90;99.90
25951;DHT22;13748;52.240;6.002;2023-04-30T00:23:42;7.90;99.90
25951;DHT22;13748;52.240;6.002;2023-04-30T00:26:09;7.90;99.90
25951;DHT22;13748;52.240;6.002;2023-04-30T00:28:36;7.80;99.90
25951;DHT22;13748;52.240;6.002;2023-04-30T00:31:03;7.80;99.90
25951;DHT22;13748;52.240;6.002;2023-04-30T00:33:32;7.80;99.90
25951;DHT22;13748;52.240;6.002;2023-04-30T00:35:59;7.70;99.90
25951;DHT22;13748;52.240;6.002;2023-04-30T00:38:25;7.80;99.90
25951;DHT22;13748;52.240;6.002;2023-04-30T00:40:52;7.80;99.90
25951;DHT22;13748;52.240;6.002;2023-04-30T00:43:19;7.70;99.90
25951;DHT22;13748;52.240;6.002;2023-04-30T00:45:52;7.70;99.90
25951;DHT22;13748;52.240;6.002;2023-04-30T00:48:19;7.70;99.90
25951;DHT22;13748;52.240;6.002;2023-04-30T00:50:46;7.60;99.90
25951;DHT22;13748;52.240;6.002;2023-04-30T00:53:12;7.60;99.90
25951;DHT22;13748;52.240;6.002;2023-04-30T00:55:40;7.60;99.90
25951;DHT22;13748;52.240;6.002;2023-04-30T00:58:07;7.60;99.90
25951;DHT22;13748;52.240;6.002;2023-04-30T01:00:35;7.50;99.90
25951;DHT22;13748;52.240;6.002;2023-04-30T01:03:02;7.50;99.90
25951;DHT22;13748;52.240;6.002;2023-04-30T01:05:29;7.50;99.90
25951;DHT22;13748;52.240;6.002;2023-04-30T01:07:56;7.50;99.90
25951;DHT22;13748;52.240;6.002;2023-04-30T01:10:29;7.40;99.90
25951;DHT22;13748;52.240;6.002;2023-04-30T01:12:58;7.40;99.90
25951;DHT22;13748;52.240;6.002;2023-04-30T01:15:41;7.30;99.90
25951;DHT22;13748;52.240;6.002;2023-04-30T01:18:14;7.30;99.90
25951;DHT22;13748;52.240;6.002;2023-04-30T01:20:48;7.30;99.90
25951;DHT22;13748;52.240;6.002;2023-04-30T01:28:41;7.20;99.90
25951;DHT22;13748;52.240;6.002;2023-04-30T01:31:18;7.10;99.90
25951;DHT22;13748;52.240;6.002;2023-04-30T01:33:45;7.10;99.90
25951;DHT22;13748;52.240;6.002;2023-04-30T01:36:20;7.00;99.90
25951;DHT22;13748;52.240;6.002;2023-04-30T01:42:05;7.00;99.90
25951;DHT22;13748;52.240;6.002;2023-04-30T01:47:56;6.90;99.90
25951;DHT22;13748;52.240;6.002;2023-04-30T01:50:37;6.80;99.90
25951;DHT22;13748;52.240;6.002;2023-04-30T01:53:19;6.80;99.90
25951;DHT22;13748;52.240;6.002;2023-04-30T01:56:00;6.80;99.90
25951;DHT22;13748;52.240;6.002;2023-04-30T01:58:29;6.90;99.90
25951;DHT22;13748;52.240;6.002;2023-04-30T02:00:56;6.70;99.90
25951;DHT22;13748;52.240;6.002;2023-04-30T02:03:31;6.70;99.90
25951;DHT22;13748;52.240;6.002;2023-04-30T02:06:05;6.70;99.90
25951;DHT22;13748;52.240;6.002;2023-04-30T02:08:39;6.60;99.90
25951;DHT22;13748;52.240;6.002;2023-04-30T02:11:19;6.70;99.90
25951;DHT22;13748;52.240;6.002;2023-04-30T02:13:57;6.60;99.90
25951;DHT22;13748;52.240;6.002;2023-04-30T02:16:28;6.50;99.90
25951;DHT22;13748;52.240;6.002;2023-04-30T02:18:55;6.50;99.90
25951;DHT22;13748;52.240;6.002;2023-04-30T02:21:22;6.50;99.90
25951;DHT22;13748;52.240;6.002;2023-04-30T02:23:49;6.40;99.90
25951;DHT22;13748;52.240;6.002;2023-04-30T02:26:15;6.40;99.90
25951;DHT22;13748;52.240;6.002;2023-04-30T02:28:42;6.40;99.90
25951;DHT22;13748;52.240;6.002;2023-04-30T02:31:09;6.40;99.90
25951;DHT22;13748;52.240;6.002;2023-04-30T02:33:36;6.40;99.90
25951;DHT22;13748;52.240;6.002;2023-04-30T02:36:03;6.40;99.90
25951;DHT22;13748;52.240;6.002;2023-04-30T02:38:30;6.30;99.90
25951;DHT22;13748;52.240;6.002;2023-04-30T02:40:56;6.30;99.90
25951;DHT22;13748;52.240;6.002;2023-04-30T02:43:30;6.30;99.90
25951;DHT22;13748;52.240;6.002;2023-04-30T02:46:09;6.30;99.90
25951;DHT22;13748;52.240;6.002;2023-04-30T02:48:37;6.30;99.90
25951;DHT22;13748;52.240;6.002;2023-04-30T02:51:06;6.30;99.90
25951;DHT22;13748;52.240;6.002;2023-04-30T02:53:42;6.20;99.90
25951;DHT22;13748;52.240;6.002;2023-04-30T02:56:13;6.20;99.90
25951;DHT22;13748;52.240;6.002;2023-04-30T02:58:42;6.30;99.90
25951;DHT22;13748;52.240;6.002;2023-04-30T03:01:09;6.20;99.90
25951;DHT22;13748;52.240;6.002;2023-04-30T03:03:41;6.20;99.90
25951;DHT22;13748;52.240;6.002;2023-04-30T03:06:11;6.20;99.90
25951;DHT22;13748;52.240;6.002;2023-04-30T03:08:38;6.20;99.90
25951;DHT22;13748;52.240;6.002;2023-04-30T03:11:05;6.10;99.90
25951;DHT22;13748;52.240;6.002;2023-04-30T03:13:32;6.10;99.90
25951;DHT22;13748;52.240;6.002;2023-04-30T03:16:01;6.10;99.90
25951;DHT22;13748;52.240;6.002;2023-04-30T03:18:30;6.00;99.90
25951;DHT22;13748;52.240;6.002;2023-04-30T03:20:57;6.00;99.90
25951;DHT22;13748;52.240;6.002;2023-04-30T03:23:26;6.00;99.90
25951;DHT22;13748;52.240;6.002;2023-04-30T03:25:53;6.00;99.90
25951;DHT22;13748;52.240;6.002;2023-04-30T03:28:20;5.90;99.90
25951;DHT22;13748;52.240;6.002;2023-04-30T03:30:47;5.90;99.90
25951;DHT22;13748;52.240;6.002;2023-04-30T03:33:15;5.90;99.90
25951;DHT22;13748;52.240;6.002;2023-04-30T03:35:42;5.90;99.90
25951;DHT22;13748;52.240;6.002;2023-04-30T03:38:09;5.90;99.90
25951;DHT22;13748;52.240;6.002;2023-04-30T03:40:36;5.80;99.90
25951;DHT22;13748;52.240;6.002;2023-04-30T03:43:02;5.80;99.90
25951;DHT22;13748;52.240;6.002;2023-04-30T03:45:29;5.70;99.90
25951;DHT22;13748;52.240;6.002;2023-04-30T03:47:57;5.70;99.90
25951;DHT22;13748;52.240;6.002;2023-04-30T03:50:24;5.70;99.90
25951;DHT22;13748;52.240;6.002;2023-04-30T03:52:51;5.70;99.90
25951;DHT22;13748;52.240;6.002;2023-04-30T03:55:18;5.70;99.90
25951;DHT22;13748;52.240;6.002;2023-04-30T03:57:45;5.70;99.90
25951;DHT22;13748;52.240;6.002;2023-04-30T04:00:12;5.60;99.90
25951;DHT22;13748;52.240;6.002;2023-04-30T04:02:39;5.60;99.90
25951;DHT22;13748;52.240;6.002;2023-04-30T04:05:07;5.50;99.90
25951;DHT22;13748;52.240;6.002;2023-04-30T04:07:33;5.50;99.90
25951;DHT22;13748;52.240;6.002;2023-04-30T04:10:01;5.50;99.90
25951;DHT22;13748;52.240;6.002;2023-04-30T04:12:28;5.50;99.90
25951;DHT22;13748;52.240;6.002;2023-04-30T04:14:55;5.50;99.90
25951;DHT22;13748;52.240;6.002;2023-04-30T04:17:22;5.50;99.90
25951;DHT22;13748;52.240;6.002;2023-04-30T04:19:50;5.50;99.90
25951;DHT22;13748;52.240;6.002;2023-04-30T04:22:17;5.40;99.90
25951;DHT22;13748;52.240;6.002;2023-04-30T04:24:44;5.40;99.90
25951;DHT22;13748;52.240;6.002;2023-04-30T04:27:11;5.40;99.90
25951;DHT22;13748;52.240;6.002;2023-04-30T04:29:38;5.40;99.90
25951;DHT22;13748;52.240;6.002;2023-04-30T04:32:05;5.40;99.90
25951;DHT22;13748;52.240;6.002;2023-04-30T04:34:32;5.50;99.90
25951;DHT22;13748;52.240;6.002;2023-04-30T04:36:59;5.50;99.90
25951;DHT22;13748;52.240;6.002;2023-04-30T04:39:27;5.50;99.90
25951;DHT22;13748;52.240;6.002;2023-04-30T04:41:53;5.50;99.90
25951;DHT22;13748;52.240;6.002;2023-04-30T04:44:21;5.60;99.90
25951;DHT22;13748;52.240;6.002;2023-04-30T04:46:49;5.60;99.90
25951;DHT22;13748;52.240;6.002;2023-04-30T04:49:19;5.60;99.90
25951;DHT22;13748;52.240;6.002;2023-04-30T04:51:46;5.60;99.90
25951;DHT22;13748;52.240;6.002;2023-04-30T04:54:13;5.60;99.90
25951;DHT22;13748;52.240;6.002;2023-04-30T04:56:39;5.70;99.90
25951;DHT22;13748;52.240;6.002;2023-04-30T04:59:06;5.70;99.90
25951;DHT22;13748;52.240;6.002;2023-04-30T05:01:33;5.70;99.90
25951;DHT22;13748;52.240;6.002;2023-04-30T05:04:00;5.80;99.90
25951;DHT22;13748;52.240;6.002;2023-04-30T05:06:27;5.80;99.90
25951;DHT22;13748;52.240;6.002;2023-04-30T05:08:54;5.90;99.90
25951;DHT22;13748;52.240;6.002;2023-04-30T05:11:21;5.90;99.90
25951;DHT22;13748;52.240;6.002;2023-04-30T05:13:48;5.90;99.90
25951;DHT22;13748;52.240;6.002;2023-04-30T05:16:15;6.00;99.90
25951;DHT22;13748;52.240;6.002;2023-04-30T05:18:42;6.00;99.90
25951;DHT22;13748;52.240;6.002;2023-04-30T05:21:08;6.10;99.90
25951;DHT22;13748;52.240;6.002;2023-04-30T05:23:36;6.10;99.90
25951;DHT22;13748;52.240;6.002;2023-04-30T05:26:03;6.20;99.90
25951;DHT22;13748;52.240;6.002;2023-04-30T05:28:30;6.20;99.90
25951;DHT22;13748;52.240;6.002;2023-04-30T05:30:57;6.30;99.90
25951;DHT22;13748;52.240;6.002;2023-04-30T05:33:23;6.30;99.90
25951;DHT22;13748;52.240;6.002;2023-04-30T05:35:52;6.40;99.90
25951;DHT22;13748;52.240;6.002;2023-04-30T05:38:19;6.40;99.90
25951;DHT22;13748;52.240;6.002;2023-04-30T05:40:46;6.50;99.90
25951;DHT22;13748;52.240;6.002;2023-04-30T05:43:13;6.50;99.90
25951;DHT22;13748;52.240;6.002;2023-04-30T05:45:40;6.60;99.90
25951;DHT22;13748;52.240;6.002;2023-04-30T05:48:06;6.70;99.90
25951;DHT22;13748;52.240;6.002;2023-04-30T05:50:33;6.70;99.90
25951;DHT22;13748;52.240;6.002;2023-04-30T05:53:00;6.70;99.90
25951;DHT22;13748;52.240;6.002;2023-04-30T05:55:26;6.80;99.90
25951;DHT22;13748;52.240;6.002;2023-04-30T05:57:53;6.90;99.90
25951;DHT22;13748;52.240;6.002;2023-04-30T06:00:20;7.00;99.90
25951;DHT22;13748;52.240;6.002;2023-04-30T06:02:47;7.40;99.90
25951;DHT22;13748;52.240;6.002;2023-04-30T06:05:14;8.50;99.90
25951;DHT22;13748;52.240;6.002;2023-04-30T06:07:41;9.80;99.90
25951;DHT22;13748;52.240;6.002;2023-04-30T06:10:08;11.20;99.90
25951;DHT22;13748;52.240;6.002;2023-04-30T06:12:36;12.40;99.90
25951;DHT22;13748;52.240;6.002;2023-04-30T06:15:03;13.50;99.90
25951;DHT22;13748;52.240;6.002;2023-04-30T06:17:30;14.40;99.90
25951;DHT22;13748;52.240;6.002;2023-04-30T06:19:56;15.40;99.90
25951;DHT22;13748;52.240;6.002;2023-04-30T06:22:26;16.30;99.90
25951;DHT22;13748;52.240;6.002;2023-04-30T06:24:53;16.90;99.90
25951;DHT22;13748;52.240;6.002;2023-04-30T06:27:19;17.40;99.90
25951;DHT22;13748;52.240;6.002;2023-04-30T06:29:46;17.90;99.90
25951;DHT22;13748;52.240;6.002;2023-04-30T06:32:13;18.30;99.90
25951;DHT22;13748;52.240;6.002;2023-04-30T06:34:40;18.80;99.90
25951;DHT22;13748;52.240;6.002;2023-04-30T06:37:06;19.20;99.90
25951;DHT22;13748;52.240;6.002;2023-04-30T06:39:33;19.50;99.90
25951;DHT22;13748;52.240;6.002;2023-04-30T06:42:00;19.80;99.90
25951;DHT22;13748;52.240;6.002;2023-04-30T06:44:27;20.10;99.90
25951;DHT22;13748;52.240;6.002;2023-04-30T06:46:54;20.60;99.90
25951;DHT22;13748;52.240;6.002;2023-04-30T06:49:21;20.70;99.90
25951;DHT22;13748;52.240;6.002;2023-04-30T06:51:48;20.80;99.90
25951;DHT22;13748;52.240;6.002;2023-04-30T06:54:14;20.70;99.90
25951;DHT22;13748;52.240;6.002;2023-04-30T06:56:41;20.50;99.90
25951;DHT22;13748;52.240;6.002;2023-04-30T06:59:09;20.20;99.90
25951;DHT22;13748;52.240;6.002;2023-04-30T07:01:36;19.90;99.90
25951;DHT22;13748;52.240;6.002;2023-04-30T07:04:02;19.70;99.90
25951;DHT22;13748;52.240;6.002;2023-04-30T07:06:29;19.40;99.90
25951;DHT22;13748;52.240;6.002;2023-04-30T07:08:56;18.90;99.90
25951;DHT22;13748;52.240;6.002;2023-04-30T07:11:23;19.10;99.90
25951;DHT22;13748;52.240;6.002;2023-04-30T07:13:49;19.10;99.90
25951;DHT22;13748;52.240;6.002;2023-04-30T07:16:16;19.30;99.90
25951;DHT22;13748;52.240;6.002;2023-04-30T07:18:43;19.60;99.90
25951;DHT22;13748;52.240;6.002;2023-04-30T07:21:10;19.90;99.90
25951;DHT22;13748;52.240;6.002;2023-04-30T07:23:37;20.20;99.90
25951;DHT22;13748;52.240;6.002;2023-04-30T07:26:03;20.30;99.90
25951;DHT22;13748;52.240;6.002;2023-04-30T07:28:30;20.50;99.90
25951;DHT22;13748;52.240;6.002;2023-04-30T07:30:57;20.40;99.90
25951;DHT22;13748;52.240;6.002;2023-04-30T07:33:23;19.90;99.90
25951;DHT22;13748;52.240;6.002;2023-04-30T07:35:50;19.90;99.90
25951;DHT22;13748;52.240;6.002;2023-04-30T07:38:17;19.70;99.90
25951;DHT22;13748;52.240;6.002;2023-04-30T07:40:44;19.50;99.90
25951;DHT22;13748;52.240;6.002;2023-04-30T07:43:11;19.60;99.90
25951;DHT22;13748;52.240;6.002;2023-04-30T07:45:38;19.70;99.90
25951;DHT22;13748;52.240;6.002;2023-04-30T07:48:06;19.70;99.90
25951;DHT22;13748;52.240;6.002;2023-04-30T07:50:33;19.30;99.90
25951;DHT22;13748;52.240;6.002;2023-04-30T07:53:00;19.50;99.90
25951;DHT22;13748;52.240;6.002;2023-04-30T07:55:27;19.70;99.90
25951;DHT22;13748;52.240;6.002;2023-04-30T07:57:54;19.70;99.90
25951;DHT22;13748;52.240;6.002;2023-04-30T08:00:21;19.80;99.90
25951;DHT22;13748;52.240;6.002;2023-04-30T08:02:48;20.10;99.90
25951;DHT22;13748;52.240;6.002;2023-04-30T08:05:16;20.30;99.90
25951;DHT22;13748;52.240;6.002;2023-04-30T08:07:43;20.40;99.90
25951;DHT22;13748;52.240;6.002;2023-04-30T08:10:10;20.30;99.90
25951;DHT22;13748;52.240;6.002;2023-04-30T08:12:37;20.30;99.90
25951;DHT22;13748;52.240;6.002;2023-04-30T08:15:05;19.90;99.90
25951;DHT22;13748;52.240;6.002;2023-04-30T08:17:33;20.10;99.90
25951;DHT22;13748;52.240;6.002;2023-04-30T08:20:01;20.10;99.90
25951;DHT22;13748;52.240;6.002;2023-04-30T08:22:28;20.00;99.90
25951;DHT22;13748;52.240;6.002;2023-04-30T08:24:55;20.10;99.90
25951;DHT22;13748;52.240;6.002;2023-04-30T08:27:22;20.10;99.90
25951;DHT22;13748;52.240;6.002;2023-04-30T08:29:49;20.30;99.90
25951;DHT22;13748;52.240;6.002;2023-04-30T08:32:18;20.40;99.90
25951;DHT22;13748;52.240;6.002;2023-04-30T08:34:45;20.60;99.90
25951;DHT22;13748;52.240;6.002;2023-04-30T08:37:11;20.50;99.90
25951;DHT22;13748;52.240;6.002;2023-04-30T08:39:38;20.50;99.90
25951;DHT22;13748;52.240;6.002;2023-04-30T08:42:07;20.70;99.90
25951;DHT22;13748;52.240;6.002;2023-04-30T08:44:36;20.80;99.90
25951;DHT22;13748;52.240;6.002;2023-04-30T08:47:06;20.80;99.90
25951;DHT22;13748;52.240;6.002;2023-04-30T08:49:34;20.80;99.90
25951;DHT22;13748;52.240;6.002;2023-04-30T08:52:02;20.40;99.90
25951;DHT22;13748;52.240;6.002;2023-04-30T08:54:33;20.30;99.90
25951;DHT22;13748;52.240;6.002;2023-04-30T08:57:00;19.80;99.90
25951;DHT22;13748;52.240;6.002;2023-04-30T08:59:28;19.50;99.90
25951;DHT22;13748;52.240;6.002;2023-04-30T09:01:54;19.20;99.90
25951;DHT22;13748;52.240;6.002;2023-04-30T09:04:22;19.30;99.90
25951;DHT22;13748;52.240;6.002;2023-04-30T09:06:51;19.60;99.90
25951;DHT22;13748;52.240;6.002;2023-04-30T09:09:18;19.80;99.90
25951;DHT22;13748;52.240;6.002;2023-04-30T09:11:45;19.90;99.90
25951;DHT22;13748;52.240;6.002;2023-04-30T09:14:12;19.80;99.90
25951;DHT22;13748;52.240;6.002;2023-04-30T09:16:47;19.70;99.90
25951;DHT22;13748;52.240;6.002;2023-04-30T09:19:25;19.60;99.90
25951;DHT22;13748;52.240;6.002;2023-04-30T09:21:54;19.50;99.90
25951;DHT22;13748;52.240;6.002;2023-04-30T09:24:22;19.20;99.90
25951;DHT22;13748;52.240;6.002;2023-04-30T09:26:50;19.20;99.90
25951;DHT22;13748;52.240;6.002;2023-04-30T09:29:17;19.30;99.90
25951;DHT22;13748;52.240;6.002;2023-04-30T09:31:45;19.20;99.90
25951;DHT22;13748;52.240;6.002;2023-04-30T09:34:13;19.00;99.90
25951;DHT22;13748;52.240;6.002;2023-04-30T09:36:54;18.90;99.90
25951;DHT22;13748;52.240;6.002;2023-04-30T09:39:21;18.80;99.90
25951;DHT22;13748;52.240;6.002;2023-04-30T09:41:49;18.90;99.90
25951;DHT22;13748;52.240;6.002;2023-04-30T09:44:30;19.00;99.90
25951;DHT22;13748;52.240;6.002;2023-04-30T09:46:58;19.00;99.90
25951;DHT22;13748;52.240;6.002;2023-04-30T09:49:25;19.00;99.90
25951;DHT22;13748;52.240;6.002;2023-04-30T09:51:58;19.00;99.90
25951;DHT22;13748;52.240;6.002;2023-04-30T09:54:29;19.20;99.90
25951;DHT22;13748;52.240;6.002;2023-04-30T09:57:01;19.20;99.90
25951;DHT22;13748;52.240;6.002;2023-04-30T09:59:32;19.10;99.90
25951;DHT22;13748;52.240;6.002;2023-04-30T10:02:03;19.20;99.90
25951;DHT22;13748;52.240;6.002;2023-04-30T10:04:38;19.20;99.90
25951;DHT22;13748;52.240;6.002;2023-04-30T10:07:16;19.30;99.90
25951;DHT22;13748;52.240;6.002;2023-04-30T10:12:49;19.30;99.90
25951;DHT22;13748;52.240;6.002;2023-04-30T10:15:25;19.10;99.90
25951;DHT22;13748;52.240;6.002;2023-04-30T10:17:59;19.10;99.90
25951;DHT22;13748;52.240;6.002;2023-04-30T10:20:27;19.00;99.90
25951;DHT22;13748;52.240;6.002;2023-04-30T10:22:54;19.10;99.90
25951;DHT22;13748;52.240;6.002;2023-04-30T10:25:21;19.10;99.90
25951;DHT22;13748;52.240;6.002;2023-04-30T10:27:50;19.20;99.90
25951;DHT22;13748;52.240;6.002;2023-04-30T10:30:17;19.30;99.90
25951;DHT22;13748;52.240;6.002;2023-04-30T10:35:39;19.40;99.90
25951;DHT22;13748;52.240;6.002;2023-04-30T10:38:14;19.40;99.90
25951;DHT22;13748;52.240;6.002;2023-04-30T10:40:45;19.30;99.90
25951;DHT22;13748;52.240;6.002;2023-04-30T10:43:12;19.40;99.90
25951;DHT22;13748;52.240;6.002;2023-04-30T10:45:42;19.30;99.90
25951;DHT22;13748;52.240;6.002;2023-04-30T10:48:52;19.40;99.90
25951;DHT22;13748;52.240;6.002;2023-04-30T10:51:56;19.20;99.90
25951;DHT22;13748;52.240;6.002;2023-04-30T10:55:08;19.00;99.90
25951;DHT22;13748;52.240;6.002;2023-04-30T11:08:31;19.00;99.90
25951;DHT22;13748;52.240;6.002;2023-04-30T11:10:59;19.00;99.90
25951;DHT22;13748;52.240;6.002;2023-04-30T11:14:00;19.00;99.90
25951;DHT22;13748;52.240;6.002;2023-04-30T11:16:32;19.30;99.90
25951;DHT22;13748;52.240;6.002;2023-04-30T11:19:10;19.30;99.90
25951;DHT22;13748;52.240;6.002;2023-04-30T11:34:58;19.60;99.90
25951;DHT22;13748;52.240;6.002;2023-04-30T11:38:15;19.70;99.90
25951;DHT22;13748;52.240;6.002;2023-04-30T11:40:57;19.70;99.90
25951;DHT22;13748;52.240;6.002;2023-04-30T11:43:28;19.70;99.90
25951;DHT22;13748;52.240;6.002;2023-04-30T11:46:15;19.70;99.90
25951;DHT22;13748;52.240;6.002;2023-04-30T11:48:44;19.80;99.90
25951;DHT22;13748;52.240;6.002;2023-04-30T11:53:41;20.00;99.90
25951;DHT22;13748;52.240;6.002;2023-04-30T11:56:08;20.20;99.90
25951;DHT22;13748;52.240;6.002;2023-04-30T11:58:36;20.40;99.90
25951;DHT22;13748;52.240;6.002;2023-04-30T12:01:06;20.50;99.90
25951;DHT22;13748;52.240;6.002;2023-04-30T12:03:54;20.60;99.90
25951;DHT22;13748;52.240;6.002;2023-04-30T12:06:26;20.60;99.90
25951;DHT22;13748;52.240;6.002;2023-04-30T12:08:58;20.60;99.90
25951;DHT22;13748;52.240;6.002;2023-04-30T12:11:27;20.60;99.90
25951;DHT22;13748;52.240;6.002;2023-04-30T12:14:02;20.40;99.90
25951;DHT22;13748;52.240;6.002;2023-04-30T12:16:44;20.30;99.90
25951;DHT22;13748;52.240;6.002;2023-04-30T12:19:11;20.40;99.90
25951;DHT22;13748;52.240;6.002;2023-04-30T12:21:40;20.30;99.90
25951;DHT22;13748;52.240;6.002;2023-04-30T12:24:07;20.40;99.90
25951;DHT22;13748;52.240;6.002;2023-04-30T12:26:37;20.50;99.90
25951;DHT22;13748;52.240;6.002;2023-04-30T12:29:10;20.50;99.90
25951;DHT22;13748;52.240;6.002;2023-04-30T12:31:41;20.60;99.90
25951;DHT22;13748;52.240;6.002;2023-04-30T12:34:12;20.70;99.90
25951;DHT22;13748;52.240;6.002;2023-04-30T12:36:40;20.80;99.90
25951;DHT22;13748;52.240;6.002;2023-04-30T12:39:14;20.80;99.90
25951;DHT22;13748;52.240;6.002;2023-04-30T12:41:44;20.70;99.90
25951;DHT22;13748;52.240;6.002;2023-04-30T12:44:21;20.80;99.90
25951;DHT22;13748;52.240;6.002;2023-04-30T12:46:50;20.70;99.90
25951;DHT22;13748;52.240;6.002;2023-04-30T12:49:22;20.80;99.90
25951;DHT22;13748;52.240;6.002;2023-04-30T12:51:50;20.90;99.90
25951;DHT22;13748;52.240;6.002;2023-04-30T12:54:31;20.90;99.90
25951;DHT22;13748;52.240;6.002;2023-04-30T12:57:04;20.90;99.90
25951;DHT22;13748;52.240;6.002;2023-04-30T12:59:36;21.00;99.90
25951;DHT22;13748;52.240;6.002;2023-04-30T13:02:11;20.90;99.90
25951;DHT22;13748;52.240;6.002;2023-04-30T13:04:40;20.80;99.90
25951;DHT22;13748;52.240;6.002;2023-04-30T13:07:07;20.80;99.90
25951;DHT22;13748;52.240;6.002;2023-04-30T13:09:35;20.80;99.90
25951;DHT22;13748;52.240;6.002;2023-04-30T13:12:03;21.00;99.90
25951;DHT22;13748;52.240;6.002;2023-04-30T13:14:30;21.00;99.90
25951;DHT22;13748;52.240;6.002;2023-04-30T13:16:58;21.50;99.90
25951;DHT22;13748;52.240;6.002;2023-04-30T13:19:25;21.50;99.90
25951;DHT22;13748;52.240;6.002;2023-04-30T13:21:52;21.50;99.90
25951;DHT22;13748;52.240;6.002;2023-04-30T13:24:19;21.30;99.90
25951;DHT22;13748;52.240;6.002;2023-04-30T13:26:45;21.50;99.90
25951;DHT22;13748;52.240;6.002;2023-04-30T13:29:13;21.50;99.90
25951;DHT22;13748;52.240;6.002;2023-04-30T13:31:40;21.50;99.90
25951;DHT22;13748;52.240;6.002;2023-04-30T13:34:08;21.60;99.90
25951;DHT22;13748;52.240;6.002;2023-04-30T13:36:36;21.60;99.90
25951;DHT22;13748;52.240;6.002;2023-04-30T13:39:03;21.70;99.90
25951;DHT22;13748;52.240;6.002;2023-04-30T13:41:30;21.80;99.90
25951;DHT22;13748;52.240;6.002;2023-04-30T13:43:57;21.80;99.90
25951;DHT22;13748;52.240;6.002;2023-04-30T13:46:25;21.80;99.90
25951;DHT22;13748;52.240;6.002;2023-04-30T13:48:52;21.90;99.90
25951;DHT22;13748;52.240;6.002;2023-04-30T13:51:19;21.90;99.90
25951;DHT22;13748;52.240;6.002;2023-04-30T13:53:46;21.90;99.90
25951;DHT22;13748;52.240;6.002;2023-04-30T13:56:13;21.90;99.90
25951;DHT22;13748;52.240;6.002;2023-04-30T13:58:41;21.90;99.90
25951;DHT22;13748;52.240;6.002;2023-04-30T14:01:07;21.90;99.90
25951;DHT22;13748;52.240;6.002;2023-04-30T14:03:36;22.00;99.90
25951;DHT22;13748;52.240;6.002;2023-04-30T14:06:03;22.00;99.90
25951;DHT22;13748;52.240;6.002;2023-04-30T14:08:31;22.10;99.90
25951;DHT22;13748;52.240;6.002;2023-04-30T14:10:59;22.10;99.90
25951;DHT22;13748;52.240;6.002;2023-04-30T14:13:26;22.10;99.90
25951;DHT22;13748;52.240;6.002;2023-04-30T14:15:53;22.00;99.90
25951;DHT22;13748;52.240;6.002;2023-04-30T14:18:21;22.00;99.90
25951;DHT22;13748;52.240;6.002;2023-04-30T14:20:48;21.90;99.90
25951;DHT22;13748;52.240;6.002;2023-04-30T14:23:15;21.80;99.90
25951;DHT22;13748;52.240;6.002;2023-04-30T14:25:42;21.60;99.90
25951;DHT22;13748;52.240;6.002;2023-04-30T14:28:10;21.70;99.90
25951;DHT22;13748;52.240;6.002;2023-04-30T14:30:37;21.70;99.90
25951;DHT22;13748;52.240;6.002;2023-04-30T14:33:04;21.70;99.90
25951;DHT22;13748;52.240;6.002;2023-04-30T14:35:32;21.70;99.90
25951;DHT22;13748;52.240;6.002;2023-04-30T14:37:59;21.70;99.90
25951;DHT22;13748;52.240;6.002;2023-04-30T14:40:25;21.60;99.90
25951;DHT22;13748;52.240;6.002;2023-04-30T14:42:52;21.30;99.90
25951;DHT22;13748;52.240;6.002;2023-04-30T14:45:19;21.00;99.90
25951;DHT22;13748;52.240;6.002;2023-04-30T14:47:46;20.60;99.90
25951;DHT22;13748;52.240;6.002;2023-04-30T14:50:13;20.30;99.90
25951;DHT22;13748;52.240;6.002;2023-04-30T14:52:39;20.10;99.90
25951;DHT22;13748;52.240;6.002;2023-04-30T14:55:07;20.00;99.90
25951;DHT22;13748;52.240;6.002;2023-04-30T14:57:34;20.00;99.90
25951;DHT22;13748;52.240;6.002;2023-04-30T15:00:02;20.10;99.90
25951;DHT22;13748;52.240;6.002;2023-04-30T15:02:32;20.40;99.90
25951;DHT22;13748;52.240;6.002;2023-04-30T15:04:59;20.70;99.90
25951;DHT22;13748;52.240;6.002;2023-04-30T15:07:26;21.00;99.90
25951;DHT22;13748;52.240;6.002;2023-04-30T15:09:53;20.90;99.90
25951;DHT22;13748;52.240;6.002;2023-04-30T15:12:20;20.60;99.90
25951;DHT22;13748;52.240;6.002;2023-04-30T15:14:48;20.50;99.90
25951;DHT22;13748;52.240;6.002;2023-04-30T15:17:14;20.20;99.90
25951;DHT22;13748;52.240;6.002;2023-04-30T15:19:41;19.90;99.90
25951;DHT22;13748;52.240;6.002;2023-04-30T15:22:09;19.70;99.90
25951;DHT22;13748;52.240;6.002;2023-04-30T15:24:35;19.60;99.90
25951;DHT22;13748;52.240;6.002;2023-04-30T15:27:02;19.60;99.90
25951;DHT22;13748;52.240;6.002;2023-04-30T15:29:29;19.60;99.90
25951;DHT22;13748;52.240;6.002;2023-04-30T15:31:57;19.70;99.90
25951;DHT22;13748;52.240;6.002;2023-04-30T15:34:25;19.80;99.90
25951;DHT22;13748;52.240;6.002;2023-04-30T15:36:52;19.80;99.90
25951;DHT22;13748;52.240;6.002;2023-04-30T15:39:19;19.80;99.90
25951;DHT22;13748;52.240;6.002;2023-04-30T15:41:47;19.90;99.90
25951;DHT22;13748;52.240;6.002;2023-04-30T15:44:14;19.90;99.90
25951;DHT22;13748;52.240;6.002;2023-04-30T15:46:41;19.80;99.90
25951;DHT22;13748;52.240;6.002;2023-04-30T15:49:08;19.90;99.90
25951;DHT22;13748;52.240;6.002;2023-04-30T15:51:35;20.10;99.90
25951;DHT22;13748;52.240;6.002;2023-04-30T15:54:02;20.30;99.90
25951;DHT22;13748;52.240;6.002;2023-04-30T15:56:29;20.50;99.90
25951;DHT22;13748;52.240;6.002;2023-04-30T15:58:57;20.60;99.90
25951;DHT22;13748;52.240;6.002;2023-04-30T16:01:23;20.50;99.90
25951;DHT22;13748;52.240;6.002;2023-04-30T16:03:50;20.50;99.90
25951;DHT22;13748;52.240;6.002;2023-04-30T16:06:18;20.30;99.90
25951;DHT22;13748;52.240;6.002;2023-04-30T16:08:45;20.30;99.90
25951;DHT22;13748;52.240;6.002;2023-04-30T16:11:12;20.20;99.90
25951;DHT22;13748;52.240;6.002;2023-04-30T16:13:39;20.20;99.90
25951;DHT22;13748;52.240;6.002;2023-04-30T16:16:06;20.20;99.90
25951;DHT22;13748;52.240;6.002;2023-04-30T16:18:34;20.20;99.90
25951;DHT22;13748;52.240;6.002;2023-04-30T16:21:01;20.10;99.90
25951;DHT22;13748;52.240;6.002;2023-04-30T16:23:28;20.10;99.90
25951;DHT22;13748;52.240;6.002;2023-04-30T16:25:54;20.10;99.90
25951;DHT22;13748;52.240;6.002;2023-04-30T16:28:22;20.10;99.90
25951;DHT22;13748;52.240;6.002;2023-04-30T16:30:49;20.20;99.90
25951;DHT22;13748;52.240;6.002;2023-04-30T16:33:16;20.20;99.90